Time;durP1;ratioP1;P1;durP2;ratioP2;P2;SDS_P1;SDS_P2;PMS_P1;PMS_P2;Temp;Humidity;BMP_temperature;BMP_pressure;BME280_temperature;BME280_humidity;BME280_pressure;Samples;Min_cycle;Max_cycle;Signal;HPM_P1;HPM_P2
2021/01/19 00:00:11;;;;;;;35.17;15.03;;;;;;;-10.44;47.56;100891.55;1812451;78;21068;-64
2021/01/19 00:02:39;;;;;;;32.13;15.63;;;;;;;-10.46;47.58;100895.59;1812408;79;20941;-60
2021/01/19 00:05:08;;;;;;;29.60;14.50;;;;;;;-10.44;47.71;100890.23;1812409;79;20934;-60
2021/01/19 00:07:35;;;;;;;31.20;14.63;;;;;;;-10.40;47.69;100886.87;1812432;79;21191;-58
2021/01/19 00:10:05;;;;;;;30.80;15.07;;;;;;;-10.38;47.70;100883.18;1812329;79;21008;-58
2021/01/19 00:12:32;;;;;;;27.80;14.57;;;;;;;-10.36;47.76;100888.31;1812316;78;20961;-60
2021/01/19 00:15:00;;;;;;;31.40;14.80;;;;;;;-10.34;47.82;100887.27;1812347;79;21599;-59
2021/01/19 00:17:28;;;;;;;29.30;14.10;;;;;;;-10.30;47.80;100889.98;1812451;79;20930;-59
2021/01/19 00:19:56;;;;;;;29.13;13.83;;;;;;;-10.27;47.90;100883.67;1812427;79;21200;-58
2021/01/19 00:22:24;;;;;;;28.33;15.50;;;;;;;-10.26;47.83;100885.34;1812382;79;20973;-59
2021/01/19 00:24:52;;;;;;;40.17;16.40;;;;;;;-10.25;47.87;100880.43;1812367;79;21096;-59
2021/01/19 00:27:20;;;;;;;26.03;13.00;;;;;;;-10.20;47.83;100877.77;1812370;79;21021;-60
2021/01/19 00:29:48;;;;;;;28.57;14.53;;;;;;;-10.18;47.82;100879.47;1812450;79;21495;-59
2021/01/19 00:32:16;;;;;;;28.90;14.33;;;;;;;-10.22;47.80;100874.91;1810845;78;21146;-59
2021/01/19 00:34:44;;;;;;;28.80;14.90;;;;;;;-10.23;47.78;100872.77;1810289;79;21811;-59
2021/01/19 00:37:11;;;;;;;29.43;13.13;;;;;;;-10.23;47.93;100871.93;1810372;79;21570;-60
2021/01/19 00:39:39;;;;;;;31.30;14.50;;;;;;;-10.21;47.91;100869.52;1810325;79;21037;-60
2021/01/19 00:42:07;;;;;;;33.00;15.13;;;;;;;-10.16;47.87;100867.85;1810496;79;20999;-61
2021/01/19 00:44:36;;;;;;;30.93;14.73;;;;;;;-10.15;47.88;100875.27;1810378;79;21504;-58
2021/01/19 00:47:04;;;;;;;32.17;15.67;;;;;;;-10.18;47.86;100877.67;1810345;79;21472;-58
2021/01/19 00:49:32;;;;;;;27.73;14.03;;;;;;;-10.20;47.85;100872.50;1810366;79;21543;-57
2021/01/19 00:52:00;;;;;;;30.03;14.17;;;;;;;-10.19;47.81;100866.77;1810313;79;21601;-59
2021/01/19 00:54:28;;;;;;;27.47;13.83;;;;;;;-10.22;47.84;100867.85;1810418;79;21132;-59
2021/01/19 00:56:56;;;;;;;29.57;13.37;;;;;;;-10.25;47.91;100864.64;1810350;79;23578;-60
2021/01/19 00:59:23;;;;;;;28.53;13.60;;;;;;;-10.24;47.86;100867.18;1810355;79;21028;-59
2021/01/19 01:01:52;;;;;;;28.87;13.73;;;;;;;-10.23;47.87;100867.50;1810396;79;20966;-57
2021/01/19 01:04:20;;;;;;;27.20;13.53;;;;;;;-10.24;47.95;100868.49;1810348;79;21056;-57
2021/01/19 01:06:53;;;;;;;26.90;14.07;;;;;;;-10.24;47.88;100867.63;1810433;79;21081;-57
2021/01/19 01:09:20;;;;;;;24.80;12.43;;;;;;;-10.24;47.86;100871.13;1810393;79;21196;-58
2021/01/19 01:11:48;;;;;;;27.77;13.13;;;;;;;-10.24;47.94;100864.55;1810251;79;20890;-57
2021/01/19 01:14:16;;;;;;;27.17;13.83;;;;;;;-10.23;47.83;100867.98;1810373;79;20922;-57
2021/01/19 01:16:44;;;;;;;29.63;12.77;;;;;;;-10.26;47.97;100859.03;1810473;79;20937;-59
2021/01/19 01:19:12;;;;;;;26.47;12.67;;;;;;;-10.21;48.08;100855.53;1810521;79;21012;-58
2021/01/19 01:21:40;;;;;;;26.23;13.13;;;;;;;-10.21;47.95;100856.36;1810541;79;21192;-56
2021/01/19 01:24:08;;;;;;;24.50;12.57;;;;;;;-10.22;47.95;100853.38;1810495;79;20945;-57
2021/01/19 01:26:37;;;;;;;27.63;13.47;;;;;;;-10.22;47.92;100842.02;1810493;79;21044;-57
2021/01/19 01:29:05;;;;;;;27.87;13.13;;;;;;;-10.20;47.93;100854.56;1810514;79;20922;-58
2021/01/19 01:31:35;;;;;;;29.03;13.87;;;;;;;-10.16;48.00;100852.06;1810792;79;20926;-58
2021/01/19 01:34:03;;;;;;;26.33;12.83;;;;;;;-10.12;47.96;100846.92;1812550;78;23583;-59
2021/01/19 01:36:41;;;;;;;25.33;12.17;;;;;;;-10.10;48.08;100848.95;1812465;79;21001;-58
2021/01/19 01:39:08;;;;;;;28.40;13.07;;;;;;;-10.07;48.12;100852.66;1812297;79;20936;-59
2021/01/19 01:41:36;;;;;;;26.70;13.83;;;;;;;-9.99;47.91;100849.42;1812469;79;21985;-59
2021/01/19 01:44:05;;;;;;;25.67;13.10;;;;;;;-9.97;47.74;100855.41;1812603;79;21575;-60
2021/01/19 01:46:36;;;;;;;23.00;11.63;;;;;;;-10.01;47.78;100860.55;1812518;78;21366;-59
2021/01/19 01:49:05;;;;;;;25.57;12.87;;;;;;;-10.02;47.78;100860.20;1812479;79;21159;-58
2021/01/19 01:51:33;;;;;;;26.17;12.90;;;;;;;-10.04;47.78;100858.98;1812437;79;20997;-58
2021/01/19 01:54:02;;;;;;;27.07;13.97;;;;;;;-10.02;47.78;100860.20;1812458;79;21119;-57
2021/01/19 01:56:29;;;;;;;25.37;12.67;;;;;;;-10.01;47.91;100860.08;1812541;79;21044;-59
2021/01/19 01:58:58;;;;;;;29.83;13.63;;;;;;;-9.98;47.68;100856.38;1812475;79;21365;-58
2021/01/19 02:01:26;;;;;;;26.83;12.73;;;;;;;-10.01;47.67;100850.86;1812448;79;20941;-58
2021/01/19 02:03:54;;;;;;;20.70;9.43;;;;;;;-10.02;47.61;100847.05;1812501;79;21003;-58
2021/01/19 02:06:22;;;;;;;22.33;12.00;;;;;;;-10.02;47.59;100850.51;1812450;79;21127;-58
2021/01/19 02:09:12;;;;;;;25.00;12.10;;;;;;;-10.06;47.53;100854.81;1812503;79;21151;-56
2021/01/19 02:11:50;;;;;;;25.27;12.33;;;;;;;-10.13;47.59;100852.31;1812585;79;21802;-57
2021/01/19 02:14:37;;;;;;;22.33;12.17;;;;;;;-10.14;47.77;100863.78;1812468;79;20937;-56
2021/01/19 02:17:26;;;;;;;24.87;12.63;;;;;;;-10.14;47.83;100865.92;1812492;79;20890;-56
2021/01/19 02:20:33;;;;;;;27.53;12.27;;;;;;;-10.14;47.83;100855.40;1805029;79;21074;-56
2021/01/19 02:23:30;;;;;;;26.33;13.00;;;;;;;-10.12;47.80;100856.62;1812555;79;21112;-55
2021/01/19 02:26:19;;;;;;;22.30;11.57;;;;;;;-10.07;47.91;100852.66;1812480;78;21366;-55
2021/01/19 02:28:53;;;;;;;20.53;11.70;;;;;;;-10.04;47.74;100852.89;1812471;79;20947;-56
2021/01/19 02:32:03;;;;;;;21.13;11.80;;;;;;;-10.04;47.57;100855.52;1785841;79;20949;-54
2021/01/19 02:34:39;;;;;;;20.23;11.33;;;;;;;-10.08;47.53;100858.89;1811818;79;21013;-56
2021/01/19 02:37:11;;;;;;;26.53;11.43;;;;;;;-10.07;47.66;100858.41;1812366;79;20949;-58
2021/01/19 02:39:55;;;;;;;26.77;12.90;;;;;;;-10.05;47.53;100859.12;1812822;79;22146;-57
2021/01/19 02:42:25;;;;;;;24.60;12.57;;;;;;;-10.04;47.54;100852.89;1812852;79;21578;-56
2021/01/19 02:44:54;;;;;;;23.50;10.53;;;;;;;-10.01;47.52;100856.12;1787968;79;20997;-56
2021/01/19 02:47:22;;;;;;;26.03;13.03;;;;;;;-9.96;47.46;100861.03;1812824;79;21139;-57
2021/01/19 02:49:49;;;;;;;26.03;13.10;;;;;;;-9.94;47.35;100855.16;1812858;79;21476;-56
2021/01/19 02:52:17;;;;;;;23.67;12.70;;;;;;;-9.96;47.34;100858.41;1812710;79;21208;-56
2021/01/19 02:54:45;;;;;;;25.03;13.23;;;;;;;-10.02;47.29;100858.41;1812692;79;21893;-56
2021/01/19 02:57:34;;;;;;;24.90;11.93;;;;;;;-10.05;47.43;100862.58;1812680;79;21560;-56
2021/01/19 03:00:13;;;;;;;22.80;11.93;;;;;;;-10.04;47.50;100862.94;1812775;79;21100;-56
2021/01/19 03:02:48;;;;;;;26.00;12.40;;;;;;;-10.05;47.38;100856.00;1812797;79;20977;-57
2021/01/19 03:05:15;;;;;;;23.20;11.40;;;;;;;-10.11;47.40;100859.12;1812810;79;21373;-58
2021/01/19 03:07:45;;;;;;;23.03;11.23;;;;;;;-10.13;47.54;100851.84;1812698;79;21028;-56
2021/01/19 03:10:17;;;;;;;22.03;11.00;;;;;;;-10.10;47.53;100851.58;1812729;79;21135;-57
2021/01/19 03:12:46;;;;;;;27.33;12.63;;;;;;;-10.14;47.48;100844.88;1812697;79;21048;-56
2021/01/19 03:15:16;;;;;;;22.97;12.17;;;;;;;-10.19;47.58;100843.08;1812797;79;21060;-55
2021/01/19 03:17:45;;;;;;;26.97;13.07;;;;;;;-10.20;47.72;100840.92;1812830;79;22305;-56
2021/01/19 03:20:14;;;;;;;27.10;11.80;;;;;;;-10.17;47.66;100842.50;1812684;79;21713;-55
2021/01/19 03:22:42;;;;;;;20.80;12.63;;;;;;;-10.14;47.68;100839.61;1812724;79;21028;-57
2021/01/19 03:25:09;;;;;;;23.47;12.70;;;;;;;-10.11;47.69;100841.18;1812652;79;21951;-57
2021/01/19 03:27:37;;;;;;;23.57;11.57;;;;;;;-10.14;47.70;100838.30;1788010;79;21023;-58
2021/01/19 03:30:08;;;;;;;25.60;12.90;;;;;;;-10.14;47.73;100830.39;1812808;79;22306;-58
2021/01/19 03:32:35;;;;;;;27.93;12.97;;;;;;;-10.11;47.73;100831.48;1812243;79;21076;-57
2021/01/19 03:35:06;;;;;;;24.20;12.37;;;;;;;-10.07;47.66;100832.09;1812397;79;20964;-57
2021/01/19 03:37:35;;;;;;;24.70;12.30;;;;;;;-10.11;47.73;100831.48;1812425;79;21060;-58
2021/01/19 03:40:07;;;;;;;24.37;12.27;;;;;;;-10.12;47.83;100832.93;1812445;79;21523;-57
2021/01/19 03:42:35;;;;;;;22.33;11.83;;;;;;;-10.12;47.88;100836.87;1812519;79;21260;-58
2021/01/19 03:45:04;;;;;;;27.03;12.80;;;;;;;-10.13;47.87;100832.09;1812280;79;20981;-57
2021/01/19 03:47:34;;;;;;;21.93;12.30;;;;;;;-10.12;47.99;100834.25;1812423;79;21539;-56
2021/01/19 03:50:03;;;;;;;22.13;11.90;;;;;;;-10.10;47.93;100838.90;1812396;79;20997;-56
2021/01/19 03:52:31;;;;;;;22.63;12.57;;;;;;;-10.10;47.91;100837.10;1812397;79;21015;-57
2021/01/19 03:54:59;;;;;;;22.37;11.90;;;;;;;-10.09;47.91;100841.88;1812392;79;21836;-56
2021/01/19 03:57:26;;;;;;;27.67;13.43;;;;;;;-10.10;47.87;100832.32;1812319;79;21084;-57
2021/01/19 03:59:54;;;;;;;23.60;11.80;;;;;;;-10.10;47.89;100833.63;1812397;79;21107;-58
2021/01/19 04:02:22;;;;;;;21.93;12.33;;;;;;;-10.10;47.85;100833.63;1812371;79;21132;-59
2021/01/19 04:04:53;;;;;;;24.63;13.07;;;;;;;-10.12;47.87;100835.08;1812403;79;20989;-60
2021/01/19 04:07:21;;;;;;;26.47;11.80;;;;;;;-10.16;47.87;100836.27;1812404;79;21369;-59
2021/01/19 04:10:57;;;;;;;22.20;11.43;;;;;;;-10.15;47.97;100834.47;1776919;79;26558;-61
2021/01/19 04:13:25;;;;;;;23.13;12.17;;;;;;;-10.24;47.98;100838.68;1749716;82;20922;-61
2021/01/19 04:15:53;;;;;;;25.80;12.63;;;;;;;-10.32;48.08;100840.61;1749695;81;21372;-59
2021/01/19 04:18:21;;;;;;;25.80;12.30;;;;;;;-10.36;48.19;100839.64;1749579;82;21029;-59
2021/01/19 04:20:49;;;;;;;23.17;12.13;;;;;;;-10.40;48.29;100844.30;1749759;81;21013;-60
2021/01/19 04:23:17;;;;;;;23.03;11.50;;;;;;;-10.40;48.29;100843.46;1749667;82;21521;-59
2021/01/19 04:25:45;;;;;;;22.07;11.47;;;;;;;-10.47;48.34;100842.62;1749721;82;20967;-60
2021/01/19 04:28:13;;;;;;;22.10;12.37;;;;;;;-10.48;48.43;100840.95;1749689;82;21427;-61
2021/01/19 04:30:42;;;;;;;23.63;12.40;;;;;;;-10.50;48.42;100842.02;1749564;82;21892;-59
2021/01/19 04:33:13;;;;;;;25.67;12.07;;;;;;;-10.53;48.47;100843.58;1749681;82;21017;-59
2021/01/19 04:35:43;;;;;;;23.37;11.67;;;;;;;-10.55;48.55;100850.73;1728124;82;21020;-59
2021/01/19 04:38:10;;;;;;;26.00;10.90;;;;;;;-10.57;48.56;100848.71;1719854;82;21583;-59
2021/01/19 04:40:39;;;;;;;23.37;12.27;;;;;;;-10.56;48.61;100852.53;1719822;83;21590;-58
2021/01/19 04:43:06;;;;;;;27.17;12.87;;;;;;;-10.53;48.55;100849.68;1691348;83;20961;-59
2021/01/19 04:45:35;;;;;;;24.97;12.70;;;;;;;-10.51;48.50;100853.50;1719786;83;20950;-59
2021/01/19 04:48:05;;;;;;;21.47;11.30;;;;;;;-10.47;48.41;100853.14;1719880;83;20946;-60
2021/01/19 04:50:34;;;;;;;24.43;12.27;;;;;;;-10.47;48.29;100860.20;1719882;83;21527;-59
2021/01/19 04:53:02;;;;;;;23.57;12.07;;;;;;;-10.53;48.29;100854.94;1691859;83;22229;-59
2021/01/19 04:55:33;;;;;;;25.53;11.43;;;;;;;-10.52;48.32;100863.66;1719889;83;21126;-59
2021/01/19 04:58:06;;;;;;;24.47;12.67;;;;;;;-10.55;48.24;100857.30;1692203;83;21190;-59
2021/01/19 05:00:36;;;;;;;26.27;11.73;;;;;;;-10.58;48.35;100861.51;1716263;83;20926;-58
2021/01/19 05:03:20;;;;;;;22.07;11.50;;;;;;;-10.59;48.24;100864.61;1687763;85;21086;-57
2021/01/19 05:05:59;;;;;;;22.60;11.23;;;;;;;-10.60;48.14;100872.59;1678242;85;21407;-58
2021/01/19 05:08:42;;;;;;;19.77;10.43;;;;;;;-10.67;48.10;100877.49;1648875;85;21008;-59
2021/01/19 05:11:23;;;;;;;18.90;9.80;;;;;;;-10.85;48.00;100852.09;1673999;84;21229;-59
2021/01/19 05:14:02;;;;;;;21.03;11.03;;;;;;;-10.70;47.80;100884.28;1706897;84;21010;-58
2021/01/19 05:16:35;;;;;;;17.40;9.20;;;;;;;-10.80;47.76;100885.92;1704336;84;21151;-58
2021/01/19 05:19:05;;;;;;;20.63;10.63;;;;;;;-10.88;47.80;100885.20;1706931;84;22301;-58
2021/01/19 05:21:37;;;;;;;21.23;10.40;;;;;;;-10.93;47.84;100884.70;1672665;85;21188;-58
2021/01/19 05:24:05;;;;;;;21.23;10.13;;;;;;;-10.92;47.78;100894.26;1666972;86;21070;-59
2021/01/19 05:26:34;;;;;;;23.00;11.40;;;;;;;-10.95;47.73;100893.64;1661118;84;21207;-60
2021/01/19 05:29:05;;;;;;;17.27;10.00;;;;;;;-11.12;47.81;100868.13;1662029;84;21250;-61
2021/01/19 05:31:33;;;;;;;19.97;9.73;;;;;;;-10.98;47.82;100893.41;1699791;84;21389;-58
2021/01/19 05:34:10;;;;;;;19.20;10.17;;;;;;;-10.97;47.84;100892.93;1667941;84;21222;-58
2021/01/19 05:36:45;;;;;;;21.90;10.60;;;;;;;-10.97;47.75;100895.55;1666927;86;21200;-59
2021/01/19 05:39:19;;;;;;;20.17;9.90;;;;;;;-11.01;47.72;100892.30;1666487;86;21164;-59
2021/01/19 05:41:52;;;;;;;14.83;7.83;;;;;;;-11.02;47.67;100899.36;1652608;86;21697;-58
2021/01/19 05:44:26;;;;;;;18.70;9.77;;;;;;;-11.01;47.59;100892.30;1670758;84;22342;-59
2021/01/19 05:47:03;;;;;;;21.50;11.03;;;;;;;-11.05;47.48;100895.66;1681426;84;21025;-53
2021/01/19 05:49:36;;;;;;;22.93;10.55;;;;;;;-11.09;47.46;100896.83;1706137;84;21592;-59
2021/01/19 05:52:12;;;;;;;20.63;10.53;;;;;;;-11.10;47.47;100899.55;1705935;83;21014;-57
2021/01/19 05:54:46;;;;;;;23.87;11.50;;;;;;;-11.10;47.45;100897.78;1706258;84;21026;-57
2021/01/19 05:57:22;;;;;;;20.63;10.33;;;;;;;-11.07;47.32;100900.65;1706450;83;21205;-58
2021/01/19 05:59:57;;;;;;;17.83;10.50;;;;;;;-11.05;47.28;100903.98;1706410;84;21018;-55
2021/01/19 06:02:47;;;;;;;19.40;8.90;;;;;;;-11.07;47.29;100908.05;1706524;84;21528;-55
2021/01/19 06:05:16;;;;;;;21.17;9.90;;;;;;;-11.08;47.20;100902.92;1706344;83;20938;-54
2021/01/19 06:07:45;;;;;;;15.00;8.07;;;;;;;-11.10;47.16;100906.98;1686552;84;21100;-56
2021/01/19 06:10:20;;;;;;;17.90;9.27;;;;;;;-11.11;47.19;100907.07;1709294;82;21384;-54
2021/01/19 06:12:48;;;;;;;16.67;8.70;;;;;;;-11.12;47.27;100909.34;1714258;83;20965;-55
2021/01/19 06:15:27;;;;;;;19.23;9.40;;;;;;;-11.08;47.20;100906.38;1714259;83;21562;-55
2021/01/19 06:17:56;;;;;;;20.83;9.43;;;;;;;-11.09;47.15;100908.66;1714394;82;20942;-52
2021/01/19 06:20:24;;;;;;;19.50;9.97;;;;;;;-11.09;47.11;100906.02;1713953;82;20942;-56
2021/01/19 06:22:52;;;;;;;18.03;10.33;;;;;;;-11.09;47.18;100912.59;1714098;83;21218;-60
2021/01/19 06:25:20;;;;;;;21.73;11.23;;;;;;;-11.04;47.14;100921.46;1714115;83;21591;-60
2021/01/19 06:27:48;;;;;;;19.87;9.53;;;;;;;-11.06;47.11;100915.45;1714137;82;20970;-56
2021/01/19 06:30:18;;;;;;;20.90;10.90;;;;;;;-11.06;47.11;100920.23;1714089;83;20934;-56
2021/01/19 06:32:48;;;;;;;21.10;11.03;;;;;;;-11.05;47.10;100924.56;1706289;83;21141;-56
2021/01/19 06:35:22;;;;;;;21.30;11.27;;;;;;;-11.01;47.11;100918.11;1682805;84;21345;-59
2021/01/19 06:37:52;;;;;;;19.77;11.27;;;;;;;-10.95;47.00;100923.87;1697183;83;21149;-58
2021/01/19 06:40:25;;;;;;;21.33;10.87;;;;;;;-10.98;46.93;100924.95;1682743;85;21170;-58
2021/01/19 06:43:00;;;;;;;21.63;10.43;;;;;;;-10.97;46.95;100923.98;1697402;84;21112;-57
2021/01/19 06:45:30;;;;;;;23.73;10.33;;;;;;;-10.92;46.95;100923.17;1697352;84;21137;-58
2021/01/19 06:48:02;;;;;;;18.83;9.93;;;;;;;-10.88;46.89;100935.63;1705365;83;22223;-59
2021/01/19 06:53:25;;;;;;;18.80;10.03;;;;;;;-10.83;46.86;100925.13;1776578;79;26762;-59
2021/01/19 06:56:01;;;;;;;24.00;10.73;;;;;;;-10.79;46.91;100930.53;1749484;82;20997;-57
2021/01/19 06:58:55;;;;;;;22.33;10.27;;;;;;;-10.70;46.75;100929.47;1726132;80;21048;-56
2021/01/19 07:01:27;;;;;;;21.00;10.83;;;;;;;-10.67;46.57;100930.08;1704472;82;21586;-57
2021/01/19 07:04:09;;;;;;;15.83;7.90;;;;;;;-10.67;46.42;100926.62;1719789;80;21551;-57
2021/01/19 07:07:08;;;;;;;18.33;9.20;;;;;;;-10.63;46.28;100934.17;1708297;82;21017;-58
2021/01/19 07:10:05;;;;;;;18.27;9.70;;;;;;;-10.36;45.98;100942.25;1726582;82;21006;-58
2021/01/19 07:12:59;;;;;;;16.70;8.75;;;;;;;-9.94;45.56;100941.55;1730938;80;21570;-52
2021/01/19 07:15:58;;;;;;;14.85;8.50;;;;;;;-9.56;44.97;100935.11;1705071;83;20981;-51
2021/01/19 07:19:11;;;;;;;15.07;9.03;;;;;;;-9.15;44.26;100941.50;1719461;83;20946;-52
2021/01/19 07:21:54;;;;;;;16.03;8.20;;;;;;;-8.75;43.67;100936.95;1733507;82;20957;-57
2021/01/19 07:24:26;;;;;;;14.93;8.57;;;;;;;-8.46;42.84;100942.47;1742913;82;21124;-60
2021/01/19 07:26:55;;;;;;;18.37;9.13;;;;;;;-8.17;42.42;100951.84;1749172;82;22381;-54
2021/01/19 07:29:27;;;;;;;20.70;9.43;;;;;;;-7.81;41.90;100941.27;1749215;82;21004;-51
2021/01/19 07:31:58;;;;;;;17.97;9.40;;;;;;;-7.48;41.27;100945.45;1749394;82;21192;-51
2021/01/19 07:34:27;;;;;;;17.27;9.17;;;;;;;-7.20;40.62;100945.17;1744531;80;21682;-51
2021/01/19 07:36:56;;;;;;;16.43;8.83;;;;;;;-6.96;40.12;100954.55;1719583;83;21155;-52
2021/01/19 07:39:24;;;;;;;15.90;8.30;;;;;;;-6.70;39.69;100946.42;1719591;82;21374;-50
2021/01/19 07:41:52;;;;;;;15.67;9.00;;;;;;;-6.46;38.95;100949.98;1691315;83;21227;-54
2021/01/19 07:44:23;;;;;;;17.47;10.10;;;;;;;-6.37;38.78;100946.50;1691664;83;20957;-52
2021/01/19 07:46:53;;;;;;;11.10;7.30;;;;;;;-6.21;38.43;100947.25;1719548;82;21658;-54
2021/01/19 07:49:31;;;;;;;13.33;7.23;;;;;;;-6.12;37.92;100941.59;1719024;83;21199;-55
2021/01/19 07:52:09;;;;;;;12.70;8.20;;;;;;;-6.03;37.77;100943.39;1719702;83;21362;-58
2021/01/19 07:54:37;;;;;;;12.23;7.37;;;;;;;-5.93;37.68;100943.34;1713161;83;21175;-50
2021/01/19 07:57:15;;;;;;;12.53;7.80;;;;;;;-5.81;37.23;100945.66;1703095;82;21139;-56
2021/01/19 07:59:45;;;;;;;12.03;7.57;;;;;;;-5.76;37.10;100948.70;1702590;83;21193;-56
2021/01/19 08:02:27;;;;;;;13.07;8.53;;;;;;;-5.57;36.95;100946.98;1679566;83;21144;-55
2021/01/19 08:05:08;;;;;;;14.53;8.13;;;;;;;-5.40;36.70;100954.64;1696904;82;21290;-56
2021/01/19 08:07:41;;;;;;;14.77;8.03;;;;;;;-5.20;36.32;100956.22;1689337;85;21168;-56
2021/01/19 08:10:29;;;;;;;13.07;7.23;;;;;;;-4.99;36.03;100958.11;1689357;85;21718;-51
2021/01/19 08:12:58;;;;;;;11.27;7.03;;;;;;;-4.83;35.58;100960.09;1689410;85;20962;-53
2021/01/19 08:15:33;;;;;;;13.60;7.07;;;;;;;-4.67;35.37;100963.90;1664320;85;20962;-54
2021/01/19 08:18:17;;;;;;;10.73;6.27;;;;;;;-4.45;35.27;100960.81;1689562;85;22148;-51
2021/01/19 08:20:47;;;;;;;9.77;6.07;;;;;;;-4.15;34.67;100968.03;1688431;85;20922;-50
2021/01/19 08:23:17;;;;;;;11.83;7.17;;;;;;;-4.33;34.31;100962.23;1709205;83;21048;-56
2021/01/19 08:25:45;;;;;;;13.23;7.30;;;;;;;-4.50;34.29;100959.10;1719728;83;21156;-49
2021/01/19 08:28:14;;;;;;;11.83;6.97;;;;;;;-4.53;34.56;100952.26;1719670;83;21167;-50
2021/01/19 08:30:44;;;;;;;11.40;7.30;;;;;;;-4.58;34.74;100955.86;1719754;83;22321;-51
2021/01/19 08:33:14;;;;;;;10.30;6.60;;;;;;;-4.62;34.62;100942.54;1693148;83;21028;-53
2021/01/19 08:35:41;;;;;;;11.57;6.23;;;;;;;-4.72;34.71;100948.42;1672214;84;21032;-53
2021/01/19 08:38:09;;;;;;;10.17;5.40;;;;;;;-4.82;34.44;100949.81;1690814;83;20942;-48
2021/01/19 08:40:40;;;;;;;13.43;6.67;;;;;;;-5.05;34.56;100954.73;1665557;84;20982;-51
2021/01/19 08:43:09;;;;;;;10.87;6.67;;;;;;;-5.28;34.92;100952.13;1665766;84;21376;-55
2021/01/19 08:45:39;;;;;;;11.73;5.90;;;;;;;-5.41;35.42;100942.37;1665158;84;21171;-49
2021/01/19 08:48:10;;;;;;;11.23;6.07;;;;;;;-5.50;35.61;100944.08;1690965;84;21234;-53
2021/01/19 08:50:41;;;;;;;12.33;7.43;;;;;;;-5.63;35.91;100934.28;1690718;83;21060;-50
2021/01/19 08:53:14;;;;;;;12.73;6.47;;;;;;;-5.85;35.88;100933.67;1686687;84;20985;-50
2021/01/19 08:55:45;;;;;;;11.57;6.57;;;;;;;-6.07;36.19;100928.75;1658644;85;21350;-60
2021/01/19 08:58:20;;;;;;;10.67;6.40;;;;;;;-6.32;36.46;100927.05;1659264;85;21155;-52
2021/01/19 09:00:48;;;;;;;11.80;6.27;;;;;;;-6.55;36.86;100929.15;1685407;85;20969;-53
2021/01/19 09:03:17;;;;;;;13.80;6.80;;;;;;;-6.74;37.26;100930.50;1685219;85;21102;-55
2021/01/19 09:05:47;;;;;;;13.73;7.33;;;;;;;-6.89;37.33;100930.07;1680804;85;21143;-55
2021/01/19 09:08:23;;;;;;;18.47;8.50;;;;;;;-7.02;37.71;100927.33;1685465;83;21397;-54
2021/01/19 09:11:05;;;;;;;14.98;8.40;;;;;;;-7.11;38.00;100928.49;1685566;85;21183;-55
2021/01/19 09:13:41;;;;;;;18.53;9.00;;;;;;;-7.15;38.06;100920.47;1682356;85;21196;-56
2021/01/19 09:16:13;;;;;;;16.00;8.10;;;;;;;-7.21;38.21;100925.48;1685494;85;21587;-55
2021/01/19 09:18:45;;;;;;;13.70;8.17;;;;;;;-7.27;38.22;100914.97;1695132;83;21183;-57
2021/01/19 09:21:14;;;;;;;14.40;7.73;;;;;;;-7.35;38.35;100914.34;1686591;83;23712;-59
2021/01/19 09:23:42;;;;;;;14.67;7.93;;;;;;;-7.44;38.47;100917.78;1662084;83;21247;-58
2021/01/19 09:26:10;;;;;;;17.73;9.13;;;;;;;-7.58;38.58;100914.19;1713244;83;21156;-58
2021/01/19 09:28:39;;;;;;;15.67;8.40;;;;;;;-7.67;38.92;100912.34;1713475;83;20977;-58
2021/01/19 09:31:16;;;;;;;14.90;8.20;;;;;;;-7.76;39.14;100919.73;1713857;83;21138;-58
2021/01/19 09:33:52;;;;;;;15.03;7.97;;;;;;;-7.76;39.51;100919.73;1713798;83;21534;-57
2021/01/19 09:36:21;;;;;;;14.53;7.90;;;;;;;-7.69;39.25;100915.61;1713700;82;21128;-59
2021/01/19 09:38:53;;;;;;;15.37;8.63;;;;;;;-7.71;39.22;100907.80;1713824;83;21547;-59
2021/01/19 09:41:24;;;;;;;17.10;9.10;;;;;;;-7.81;39.35;100913.53;1686543;83;21017;-58
2021/01/19 09:43:55;;;;;;;15.83;8.90;;;;;;;-7.85;39.76;100916.11;1714140;83;21073;-58
2021/01/19 09:46:26;;;;;;;15.87;8.70;;;;;;;-7.81;39.98;100914.02;1686209;83;22421;-58
2021/01/19 09:49:00;;;;;;;19.57;9.77;;;;;;;-7.81;39.88;100902.13;1714036;83;21001;-55
2021/01/19 09:51:30;;;;;;;17.67;8.67;;;;;;;-7.82;39.93;100902.62;1714075;82;21081;-58
2021/01/19 09:54:00;;;;;;;17.43;9.37;;;;;;;-7.77;40.04;100905.70;1719407;83;21630;-56
2021/01/19 09:56:28;;;;;;;18.10;9.80;;;;;;;-7.69;40.05;100898.44;1693768;83;21504;-57
2021/01/19 09:59:05;;;;;;;17.63;8.90;;;;;;;-7.69;40.09;100893.98;1719801;83;21402;-52
2021/01/19 10:01:34;;;;;;;18.17;10.33;;;;;;;-7.69;40.21;100894.48;1693638;83;21097;-53
2021/01/19 10:04:02;;;;;;;13.93;7.63;;;;;;;-7.76;40.22;100892.00;1719766;83;21041;-55
2021/01/19 10:06:30;;;;;;;16.83;9.00;;;;;;;-7.84;40.51;100888.23;1719732;83;21091;-56
2021/01/19 10:08:59;;;;;;;17.33;9.10;;;;;;;-7.84;40.67;100886.08;1719735;83;21167;-58
2021/01/19 10:11:37;;;;;;;20.00;9.80;;;;;;;-7.78;40.64;100893.46;1719726;83;21378;-57
2021/01/19 10:14:14;;;;;;;20.90;10.17;;;;;;;-7.63;40.75;100894.77;1719695;83;21546;-60
2021/01/19 10:16:50;;;;;;;21.70;9.83;;;;;;;-7.49;40.58;100891.41;1719430;82;21036;-56
2021/01/19 10:19:26;;;;;;;17.57;9.10;;;;;;;-7.41;40.59;100883.63;1719708;83;20970;-56
2021/01/19 10:22:00;;;;;;;18.23;9.23;;;;;;;-7.39;40.34;100886.50;1719978;83;21678;-56
2021/01/19 10:24:28;;;;;;;13.03;7.35;;;;;;;-7.36;40.48;100878.77;1719913;83;23014;-56
2021/01/19 10:27:08;;;;;;;17.67;9.40;;;;;;;-7.37;40.22;100878.41;1719707;83;20973;-57
2021/01/19 10:29:41;;;;;;;16.70;8.37;;;;;;;-7.42;40.22;100880.63;1719658;83;20946;-57
2021/01/19 10:32:12;;;;;;;17.37;9.37;;;;;;;-7.44;40.36;100882.59;1719716;83;21628;-54
2021/01/19 10:34:49;;;;;;;22.63;9.13;;;;;;;-7.48;40.28;100878.54;1719670;82;21131;-56
2021/01/19 10:37:17;;;;;;;19.47;9.77;;;;;;;-7.54;40.46;100875.95;1693475;83;21288;-56
2021/01/19 10:39:51;;;;;;;17.77;9.27;;;;;;;-7.56;40.51;100867.30;1719600;82;21005;-57
2021/01/19 10:42:33;;;;;;;17.63;9.63;;;;;;;-7.57;40.55;100867.80;1692798;83;21123;-56
2021/01/19 10:45:05;;;;;;;16.77;9.00;;;;;;;-7.57;40.49;100865.64;1694592;83;21167;-56
2021/01/19 10:47:43;;;;;;;17.80;9.50;;;;;;;-7.65;40.64;100865.02;1719733;83;21179;-56
2021/01/19 10:50:19;;;;;;;16.90;8.47;;;;;;;-7.70;40.85;100855.81;1719648;83;23489;-57
2021/01/19 10:52:54;;;;;;;18.80;9.33;;;;;;;-7.75;40.87;100860.18;1695324;83;21167;-52
2021/01/19 10:55:32;;;;;;;18.30;9.20;;;;;;;-7.77;41.12;100854.17;1888412;76;26296;-55
2021/01/19 10:58:03;;;;;;;14.93;8.17;;;;;;;-7.78;41.25;100850.36;1775148;80;21001;-55
2021/01/19 11:00:35;;;;;;;16.40;8.90;;;;;;;-7.76;41.26;100855.84;1849651;77;21401;-51
2021/01/19 11:03:03;;;;;;;18.93;9.97;;;;;;;-7.77;41.37;100855.98;1793755;77;20934;-53
2021/01/19 11:05:33;;;;;;;17.60;9.03;;;;;;;-7.74;41.44;100849.12;1819740;77;21043;-56
2021/01/19 11:08:00;;;;;;;17.00;8.33;;;;;;;-7.71;41.43;100852.31;1849641;77;20992;-57
2021/01/19 11:10:29;;;;;;;22.53;10.60;;;;;;;-7.71;41.42;100847.03;1849696;77;20921;-51
2021/01/19 11:12:58;;;;;;;15.93;9.17;;;;;;;-7.69;41.47;100838.98;1820014;77;22207;-60
2021/01/19 11:15:27;;;;;;;18.07;9.50;;;;;;;-7.63;41.87;100833.98;1849654;77;21001;-60
2021/01/19 11:17:55;;;;;;;17.43;9.20;;;;;;;-7.45;41.61;100839.46;1849604;77;21547;-58
2021/01/19 11:20:27;;;;;;;16.80;9.13;;;;;;;-7.20;41.30;100839.88;1849737;77;21043;-63
2021/01/19 11:22:58;;;;;;;16.73;9.43;;;;;;;-6.94;41.20;100829.13;1819710;77;21115;-52
2021/01/19 11:25:26;;;;;;;19.83;10.73;;;;;;;-6.64;40.68;100832.09;1819297;77;21477;-54
2021/01/19 11:27:57;;;;;;;17.50;9.73;;;;;;;-6.33;40.17;100828.73;1849380;77;21056;-55
2021/01/19 11:30:26;;;;;;;18.47;10.67;;;;;;;-6.02;39.77;100825.83;1819438;77;21148;-54
2021/01/19 11:32:55;;;;;;;22.07;10.47;;;;;;;-5.77;39.53;100818.98;1849771;77;21554;-58